Time;durP1;ratioP1;P1;durP2;ratioP2;P2;SDS_P1;SDS_P2;PMS_P1;PMS_P2;Temp;Humidity;BMP_temperature;BMP_pressure;BME280_temperature;BME280_humidity;BME280_pressure;Samples;Min_cycle;Max_cycle;Signal;HPM_P1;HPM_P2
2021/07/24 00:01:17;;;;;;;;;;;16.00;99.90;;;;;;5069730;28;19948;-65
2021/07/24 00:03:44;;;;;;;;;;;16.00;99.90;;;;;;5065056;28;20376;-65
2021/07/24 00:06:10;;;;;;;;;;;16.00;99.90;;;;;;5063536;28;19940;-65
2021/07/24 00:08:40;;;;;;;;;;;16.00;99.90;;;;;;5031292;28;20294;-65
2021/07/24 00:11:09;;;;;;;;;;;16.00;99.90;;;;;;5034072;28;20350;-65
2021/07/24 00:13:36;;;;;;;;;;;15.90;99.90;;;;;;5069068;28;19916;-66
2021/07/24 00:16:04;;;;;;;;;;;15.90;99.90;;;;;;5058508;28;19911;-66
2021/07/24 00:18:33;;;;;;;;;;;15.90;99.90;;;;;;5060777;28;20412;-65
2021/07/24 00:20:59;;;;;;;;;;;15.90;99.90;;;;;;5072576;28;20003;-66
2021/07/24 00:23:28;;;;;;;;;;;15.80;99.90;;;;;;5060861;28;19909;-65
2021/07/24 00:25:55;;;;;;;;;;;15.80;99.90;;;;;;5065560;28;19908;-65
2021/07/24 00:28:21;;;;;;;;;;;15.80;99.90;;;;;;5060769;28;19914;-65
2021/07/24 00:30:46;;;;;;;;;;;15.80;99.90;;;;;;5070379;28;19974;-65
2021/07/24 00:33:14;;;;;;;;;;;15.70;99.90;;;;;;5059928;28;20011;-65
2021/07/24 00:35:42;;;;;;;;;;;15.70;99.90;;;;;;5059948;28;19905;-65
2021/07/24 00:38:08;;;;;;;;;;;15.80;99.90;;;;;;5066287;28;19904;-65
2021/07/24 00:40:36;;;;;;;;;;;15.70;99.90;;;;;;5076617;28;19908;-65
2021/07/24 00:43:02;;;;;;;;;;;15.70;99.90;;;;;;5053437;28;20146;-65
2021/07/24 00:45:28;;;;;;;;;;;15.70;99.90;;;;;;5061122;28;19915;-65
2021/07/24 00:47:59;;;;;;;;;;;15.70;99.90;;;;;;5061589;28;20050;-65
2021/07/24 00:50:25;;;;;;;;;;;15.60;99.90;;;;;;5050692;28;20219;-65
2021/07/24 00:52:53;;;;;;;;;;;15.60;99.90;;;;;;5036621;28;19912;-65
2021/07/24 00:55:21;;;;;;;;;;;15.60;99.90;;;;;;5047757;28;20049;-64
2021/07/24 00:57:48;;;;;;;;;;;15.60;99.90;;;;;;5050898;28;20315;-65
2021/07/24 01:00:17;;;;;;;;;;;15.60;99.90;;;;;;5055946;28;19908;-65
2021/07/24 01:02:43;;;;;;;;;;;15.50;99.90;;;;;;5054959;28;19904;-64
2021/07/24 01:05:09;;;;;;;;;;;15.50;99.90;;;;;;5057553;28;19919;-65
2021/07/24 01:07:38;;;;;;;;;;;15.50;99.90;;;;;;5068361;28;19913;-65
2021/07/24 01:10:10;;;;;;;;;;;15.50;99.90;;;;;;5069294;28;20375;-64
2021/07/24 01:12:37;;;;;;;;;;;15.40;99.90;;;;;;5061257;28;19963;-64
2021/07/24 01:15:04;;;;;;;;;;;15.40;99.90;;;;;;5046763;28;19908;-65
2021/07/24 01:17:29;;;;;;;;;;;15.40;99.90;;;;;;5049025;28;19912;-65
2021/07/24 01:20:02;;;;;;;;;;;15.40;99.90;;;;;;5050345;28;19924;-65
2021/07/24 01:22:27;;;;;;;;;;;15.40;99.90;;;;;;5068615;28;20341;-65
2021/07/24 01:24:53;;;;;;;;;;;15.30;99.90;;;;;;5068359;28;19905;-64
2021/07/24 01:27:18;;;;;;;;;;;15.30;99.90;;;;;;5059504;28;19908;-65
2021/07/24 01:29:46;;;;;;;;;;;15.30;99.90;;;;;;5067254;28;19919;-65
2021/07/24 01:32:12;;;;;;;;;;;15.30;99.90;;;;;;5068871;28;19923;-65
2021/07/24 01:34:37;;;;;;;;;;;15.30;99.90;;;;;;5050029;28;19908;-65
2021/07/24 01:37:03;;;;;;;;;;;15.30;99.90;;;;;;5046778;28;20053;-65
2021/07/24 01:39:28;;;;;;;;;;;15.30;99.90;;;;;;5049731;28;19905;-65
2021/07/24 01:41:57;;;;;;;;;;;15.30;99.90;;;;;;5052776;28;20003;-65
2021/07/24 01:44:25;;;;;;;;;;;15.30;99.90;;;;;;5068808;28;20284;-65
2021/07/24 01:46:51;;;;;;;;;;;15.30;99.90;;;;;;5062304;28;19990;-65
2021/07/24 01:54:51;;;;;;;;;;;15.20;99.90;;;;;;5052023;28;20240;-65
2021/07/24 01:57:22;;;;;;;;;;;15.10;99.90;;;;;;5052048;28;19914;-65
2021/07/24 01:59:51;;;;;;;;;;;15.10;99.90;;;;;;5052067;28;20372;-65
2021/07/24 02:02:17;;;;;;;;;;;15.10;99.90;;;;;;5065394;28;19949;-65
2021/07/24 02:04:49;;;;;;;;;;;15.10;99.90;;;;;;5070390;28;19912;-65
2021/07/24 02:07:16;;;;;;;;;;;15.10;99.90;;;;;;5071192;28;20284;-65
2021/07/24 02:09:42;;;;;;;;;;;15.10;99.90;;;;;;5071938;28;19908;-65
2021/07/24 02:12:08;;;;;;;;;;;15.10;99.90;;;;;;5070382;28;20042;-65
2021/07/24 02:14:34;;;;;;;;;;;15.10;99.90;;;;;;5071250;28;20023;-65
2021/07/24 02:17:07;;;;;;;;;;;15.00;99.90;;;;;;5070732;28;20492;-65
2021/07/24 02:19:35;;;;;;;;;;;15.00;99.90;;;;;;5071635;28;19944;-65
2021/07/24 02:22:01;;;;;;;;;;;15.00;99.90;;;;;;5059107;28;19951;-65
2021/07/24 02:24:26;;;;;;;;;;;14.90;99.90;;;;;;5051024;28;19919;-65
2021/07/24 02:26:54;;;;;;;;;;;14.90;99.90;;;;;;5063861;28;19932;-65
2021/07/24 02:29:19;;;;;;;;;;;14.90;99.90;;;;;;5056923;28;19909;-65
2021/07/24 02:31:47;;;;;;;;;;;14.90;99.90;;;;;;5050999;28;19909;-65
2021/07/24 02:34:13;;;;;;;;;;;14.80;99.90;;;;;;5032831;28;19905;-65
2021/07/24 02:36:38;;;;;;;;;;;14.80;99.90;;;;;;5068065;28;20424;-65
2021/07/24 02:39:04;;;;;;;;;;;14.80;99.90;;;;;;5054708;28;20253;-64
2021/07/24 02:41:29;;;;;;;;;;;14.80;99.90;;;;;;5051049;28;19912;-65
2021/07/24 02:43:57;;;;;;;;;;;14.80;99.90;;;;;;5050547;28;19913;-65
2021/07/24 02:46:25;;;;;;;;;;;14.80;99.90;;;;;;5050335;28;20355;-65
2021/07/24 02:48:56;;;;;;;;;;;14.80;99.90;;;;;;5033226;28;19948;-65
2021/07/24 02:51:22;;;;;;;;;;;14.80;99.90;;;;;;5049926;28;19913;-65
2021/07/24 02:53:47;;;;;;;;;;;14.80;99.90;;;;;;5068816;28;20386;-65
2021/07/24 02:56:15;;;;;;;;;;;14.70;99.90;;;;;;5069867;28;19908;-65
2021/07/24 02:58:43;;;;;;;;;;;14.70;99.90;;;;;;5057550;28;20340;-65
2021/07/24 03:01:08;;;;;;;;;;;14.70;99.90;;;;;;5075836;28;19981;-65
2021/07/24 03:03:34;;;;;;;;;;;14.70;99.90;;;;;;5068890;28;20007;-65
2021/07/24 03:06:02;;;;;;;;;;;14.70;99.90;;;;;;5052033;28;19991;-65
2021/07/24 03:08:27;;;;;;;;;;;14.70;99.90;;;;;;5048984;28;19919;-65
2021/07/24 03:10:56;;;;;;;;;;;14.70;99.90;;;;;;5069584;28;20360;-65
2021/07/24 03:13:21;;;;;;;;;;;14.70;99.90;;;;;;5053276;28;20378;-65
2021/07/24 03:15:50;;;;;;;;;;;14.60;99.90;;;;;;5050540;28;20025;-65
2021/07/24 03:18:18;;;;;;;;;;;14.60;99.90;;;;;;5032957;28;19908;-65
2021/07/24 03:20:43;;;;;;;;;;;14.60;99.90;;;;;;5057393;28;19909;-65
2021/07/24 03:23:08;;;;;;;;;;;14.60;99.90;;;;;;5070112;28;19958;-65
2021/07/24 03:25:34;;;;;;;;;;;14.60;99.90;;;;;;5067882;28;19908;-65
2021/07/24 03:28:00;;;;;;;;;;;14.60;99.90;;;;;;5069566;28;20020;-65
2021/07/24 03:30:25;;;;;;;;;;;14.60;99.90;;;;;;5068622;28;19909;-64
2021/07/24 03:32:53;;;;;;;;;;;14.60;99.90;;;;;;5069962;28;19904;-63
2021/07/24 03:35:24;;;;;;;;;;;14.60;99.90;;;;;;5068727;28;20007;-64
2021/07/24 03:37:50;;;;;;;;;;;14.60;99.90;;;;;;5047105;28;20327;-65
2021/07/24 03:40:20;;;;;;;;;;;14.60;99.90;;;;;;5049647;28;19908;-65
2021/07/24 03:42:48;;;;;;;;;;;14.60;99.90;;;;;;5051158;28;20310;-65
2021/07/24 03:45:13;;;;;;;;;;;14.60;99.90;;;;;;5067181;28;19995;-65
2021/07/24 03:47:38;;;;;;;;;;;14.60;99.90;;;;;;5049734;28;20356;-65
2021/07/24 03:50:04;;;;;;;;;;;14.60;99.90;;;;;;5050163;28;19917;-66
2021/07/24 03:52:30;;;;;;;;;;;14.60;99.90;;;;;;5049587;28;20276;-65
2021/07/24 03:54:57;;;;;;;;;;;14.60;99.90;;;;;;5049166;28;20366;-66
2021/07/24 03:57:25;;;;;;;;;;;14.60;99.90;;;;;;5049821;28;20310;-65
2021/07/24 03:59:52;;;;;;;;;;;14.60;99.90;;;;;;5051866;28;19908;-65
2021/07/24 04:02:23;;;;;;;;;;;14.60;99.90;;;;;;5067848;28;19904;-65
2021/07/24 04:04:54;;;;;;;;;;;14.60;99.90;;;;;;5032295;28;19958;-65
2021/07/24 04:07:20;;;;;;;;;;;14.70;99.90;;;;;;5069309;28;19908;-65
2021/07/24 04:09:58;;;;;;;;;;;14.70;99.90;;;;;;5069522;28;20457;-65
2021/07/24 04:12:23;;;;;;;;;;;14.70;99.90;;;;;;5067877;28;20360;-65
2021/07/24 04:14:49;;;;;;;;;;;14.70;99.90;;;;;;5050815;28;19925;-65
2021/07/24 04:17:14;;;;;;;;;;;14.70;99.90;;;;;;5069526;28;19987;-65
2021/07/24 04:19:42;;;;;;;;;;;14.70;99.90;;;;;;5058917;28;20425;-65
2021/07/24 04:22:15;;;;;;;;;;;14.70;99.90;;;;;;5064518;28;19935;-65
2021/07/24 04:24:40;;;;;;;;;;;14.80;99.90;;;;;;5030137;28;19905;-65
2021/07/24 04:27:08;;;;;;;;;;;14.80;99.90;;;;;;5063328;28;19914;-65
2021/07/24 04:29:34;;;;;;;;;;;14.80;99.90;;;;;;5068749;28;19908;-65
2021/07/24 04:32:04;;;;;;;;;;;14.80;99.90;;;;;;5065288;28;20410;-65
2021/07/24 04:34:30;;;;;;;;;;;14.80;99.90;;;;;;5052132;28;19947;-65
2021/07/24 04:36:55;;;;;;;;;;;14.90;99.90;;;;;;5070745;28;20357;-65
2021/07/24 04:39:21;;;;;;;;;;;14.90;99.90;;;;;;5070963;28;20359;-65
2021/07/24 04:41:46;;;;;;;;;;;14.90;99.90;;;;;;5066662;28;19909;-65
2021/07/24 04:44:12;;;;;;;;;;;15.00;99.90;;;;;;5050675;28;19977;-65
2021/07/24 04:46:39;;;;;;;;;;;15.00;99.90;;;;;;5063595;28;20017;-65
2021/07/24 04:49:07;;;;;;;;;;;15.00;99.90;;;;;;5050579;28;20020;-65
2021/07/24 04:51:33;;;;;;;;;;;15.10;99.90;;;;;;5058615;28;19908;-65
2021/07/24 04:54:01;;;;;;;;;;;15.10;99.90;;;;;;5063916;28;20317;-65
2021/07/24 04:56:30;;;;;;;;;;;15.10;99.90;;;;;;5070405;28;19915;-65
2021/07/24 04:58:56;;;;;;;;;;;15.20;99.90;;;;;;5068805;28;19912;-65
2021/07/24 05:01:24;;;;;;;;;;;15.20;99.90;;;;;;5069731;28;19904;-65
2021/07/24 05:03:49;;;;;;;;;;;15.20;99.90;;;;;;5070247;28;19919;-65
2021/07/24 05:06:15;;;;;;;;;;;15.30;99.90;;;;;;5063977;28;19916;-65
2021/07/24 05:08:40;;;;;;;;;;;15.30;99.90;;;;;;5034487;23;20506;-72
2021/07/24 05:13:53;;;;;;;;;;;15.40;99.90;;;;;;5011625;28;19906;-74
2021/07/24 05:16:19;;;;;;;;;;;15.40;99.90;;;;;;5006235;28;20286;-73
2021/07/24 05:18:47;;;;;;;;;;;15.50;99.90;;;;;;4995349;28;19910;-73
2021/07/24 05:21:16;;;;;;;;;;;15.50;99.90;;;;;;5008868;28;20419;-73
2021/07/24 05:23:42;;;;;;;;;;;15.60;99.90;;;;;;5015199;28;19995;-73
2021/07/24 05:26:18;;;;;;;;;;;15.60;99.90;;;;;;5007625;28;19906;-73
2021/07/24 05:28:44;;;;;;;;;;;15.70;99.90;;;;;;5010960;28;19917;-73
2021/07/24 05:31:25;;;;;;;;;;;15.80;99.90;;;;;;4996897;28;19906;-75
2021/07/24 05:33:50;;;;;;;;;;;15.80;99.90;;;;;;4996023;28;19951;-73
2021/07/24 05:36:18;;;;;;;;;;;15.90;99.90;;;;;;4996192;28;19909;-73
2021/07/24 05:38:44;;;;;;;;;;;16.00;99.90;;;;;;4996174;28;19909;-73
2021/07/24 05:41:09;;;;;;;;;;;16.00;99.90;;;;;;4996187;28;20397;-76
2021/07/24 05:43:35;;;;;;;;;;;16.10;99.90;;;;;;5010673;28;19920;-73
2021/07/24 05:46:01;;;;;;;;;;;16.20;99.90;;;;;;5012962;28;20308;-74
2021/07/24 05:48:27;;;;;;;;;;;16.20;99.90;;;;;;5010785;28;20008;-73
2021/07/24 05:50:52;;;;;;;;;;;16.30;99.90;;;;;;4995992;28;19909;-74
2021/07/24 05:53:20;;;;;;;;;;;16.40;99.90;;;;;;4995590;28;19905;-74
2021/07/24 05:55:47;;;;;;;;;;;16.50;99.90;;;;;;4995860;28;19914;-73
2021/07/24 05:58:15;;;;;;;;;;;16.60;99.90;;;;;;4995779;28;19953;-74
2021/07/24 06:00:41;;;;;;;;;;;16.60;99.90;;;;;;5026608;28;19906;-74
2021/07/24 06:03:06;;;;;;;;;;;16.80;99.90;;;;;;5004114;28;19932;-74
2021/07/24 06:05:31;;;;;;;;;;;16.90;99.90;;;;;;5011248;28;19953;-73
2021/07/24 06:07:57;;;;;;;;;;;16.90;99.90;;;;;;5005698;28;19959;-74
2021/07/24 06:10:22;;;;;;;;;;;17.00;99.90;;;;;;5009805;28;19914;-74
2021/07/24 06:12:48;;;;;;;;;;;17.10;99.90;;;;;;5009783;28;19928;-76
2021/07/24 06:15:13;;;;;;;;;;;17.10;99.90;;;;;;5007554;28;19952;-73
2021/07/24 06:17:39;;;;;;;;;;;17.20;99.90;;;;;;5014448;28;19906;-74
2021/07/24 06:20:04;;;;;;;;;;;17.30;99.90;;;;;;5008034;28;20020;-73
2021/07/24 06:22:30;;;;;;;;;;;17.40;99.90;;;;;;5014144;28;19909;-74
2021/07/24 06:24:55;;;;;;;;;;;17.50;99.90;;;;;;5004285;28;19906;-74
2021/07/24 06:27:21;;;;;;;;;;;17.60;99.90;;;;;;5006500;28;19959;-74
2021/07/24 06:29:46;;;;;;;;;;;17.70;99.90;;;;;;5012960;28;20008;-73
2021/07/24 06:32:11;;;;;;;;;;;17.80;99.90;;;;;;5013539;28;19905;-73
2021/07/24 06:34:37;;;;;;;;;;;17.90;99.90;;;;;;5012656;28;19906;-74
2021/07/24 06:37:02;;;;;;;;;;;18.00;99.90;;;;;;5010027;28;19925;-73
2021/07/24 06:39:28;;;;;;;;;;;18.10;99.90;;;;;;5007603;28;19907;-74
2021/07/24 06:41:53;;;;;;;;;;;18.10;99.90;;;;;;5012997;28;19906;-74
2021/07/24 06:44:20;;;;;;;;;;;18.20;99.90;;;;;;5008187;28;19910;-73
2021/07/24 06:46:46;;;;;;;;;;;18.30;99.90;;;;;;5013926;28;19905;-74
2021/07/24 06:49:11;;;;;;;;;;;18.40;99.90;;;;;;5014061;28;20288;-73
2021/07/24 06:51:36;;;;;;;;;;;18.50;99.90;;;;;;5013951;28;20322;-74
2021/07/24 06:54:02;;;;;;;;;;;18.60;99.90;;;;;;5004170;28;20309;-73
2021/07/24 06:56:27;;;;;;;;;;;18.70;99.90;;;;;;5013733;28;19905;-73
2021/07/24 06:58:53;;;;;;;;;;;18.80;99.90;;;;;;5013871;28;19912;-74
2021/07/24 07:01:18;;;;;;;;;;;18.80;99.90;;;;;;5009387;28;19910;-73
2021/07/24 07:03:43;;;;;;;;;;;18.90;99.90;;;;;;5006412;28;19917;-73
2021/07/24 07:06:11;;;;;;;;;;;19.10;99.90;;;;;;5013298;28;19909;-74
2021/07/24 07:08:37;;;;;;;;;;;19.10;99.90;;;;;;5013441;28;20381;-74
2021/07/24 07:11:03;;;;;;;;;;;19.20;99.90;;;;;;5010911;28;19910;-71
2021/07/24 07:13:29;;;;;;;;;;;19.30;99.90;;;;;;5005301;28;20420;-72
2021/07/24 07:15:55;;;;;;;;;;;19.30;99.90;;;;;;5013255;28;19909;-71
2021/07/24 07:18:21;;;;;;;;;;;19.40;99.90;;;;;;5004408;28;20003;-72
2021/07/24 07:20:46;;;;;;;;;;;19.50;99.90;;;;;;5012575;28;19909;-71
2021/07/24 07:23:12;;;;;;;;;;;19.60;99.90;;;;;;5013697;28;20425;-71
2021/07/24 07:25:38;;;;;;;;;;;19.60;99.90;;;;;;5012819;28;19921;-71
2021/07/24 07:28:04;;;;;;;;;;;19.80;99.90;;;;;;5007559;28;20436;-72
2021/07/24 07:30:29;;;;;;;;;;;19.90;99.90;;;;;;5013871;28;19906;-71
2021/07/24 07:32:55;;;;;;;;;;;19.90;99.90;;;;;;5005532;28;19999;-72
2021/07/24 07:35:20;;;;;;;;;;;20.00;99.90;;;;;;5006588;28;19909;-71
2021/07/24 07:37:46;;;;;;;;;;;20.10;99.90;;;;;;5013279;28;19956;-72
2021/07/24 07:40:12;;;;;;;;;;;20.20;99.90;;;;;;5012031;28;19956;-71
2021/07/24 07:42:38;;;;;;;;;;;20.30;99.90;;;;;;5012667;28;20286;-72
2021/07/24 07:45:03;;;;;;;;;;;20.30;99.90;;;;;;5008740;28;19916;-72
2021/07/24 07:47:29;;;;;;;;;;;20.40;99.90;;;;;;5013231;28;19905;-72
2021/07/24 07:49:54;;;;;;;;;;;20.40;99.90;;;;;;5013026;28;20402;-72
2021/07/24 07:52:19;;;;;;;;;;;20.60;99.90;;;;;;5013159;28;20440;-72
2021/07/24 07:54:45;;;;;;;;;;;20.70;99.90;;;;;;5011320;28;19955;-73
2021/07/24 07:57:10;;;;;;;;;;;20.80;99.90;;;;;;5011559;28;19958;-71
2021/07/24 07:59:36;;;;;;;;;;;20.80;99.90;;;;;;5012559;28;19905;-72
2021/07/24 08:02:01;;;;;;;;;;;20.90;99.90;;;;;;4997922;28;19910;-73
2021/07/24 08:04:27;;;;;;;;;;;21.00;99.90;;;;;;5008412;28;19955;-72
2021/07/24 08:06:52;;;;;;;;;;;21.00;99.90;;;;;;5010852;28;19909;-72
2021/07/24 08:09:20;;;;;;;;;;;21.10;99.90;;;;;;5007798;28;19921;-72
2021/07/24 08:11:45;;;;;;;;;;;21.20;99.90;;;;;;5000507;28;19997;-71
2021/07/24 08:14:12;;;;;;;;;;;21.30;99.90;;;;;;4998723;28;20000;-71
2021/07/24 08:16:38;;;;;;;;;;;21.40;99.90;;;;;;5002155;28;19906;-72
2021/07/24 08:19:03;;;;;;;;;;;21.40;99.90;;;;;;5003174;28;19916;-71
2021/07/24 08:21:29;;;;;;;;;;;21.50;99.90;;;;;;5007108;28;20060;-71
2021/07/24 08:23:54;;;;;;;;;;;21.60;99.90;;;;;;5010063;28;20010;-72
2021/07/24 08:26:22;;;;;;;;;;;21.70;99.90;;;;;;5009378;28;20281;-71
2021/07/24 08:28:47;;;;;;;;;;;21.70;99.90;;;;;;5010905;28;20204;-71
2021/07/24 08:31:13;;;;;;;;;;;21.70;99.90;;;;;;5002759;28;19971;-72
2021/07/24 08:33:39;;;;;;;;;;;21.90;99.90;;;;;;5010499;28;19959;-72
2021/07/24 08:36:04;;;;;;;;;;;22.00;99.90;;;;;;5005609;28;19909;-73
2021/07/24 08:38:32;;;;;;;;;;;22.00;99.90;;;;;;5012289;28;19905;-71
2021/07/24 08:40:57;;;;;;;;;;;22.10;99.90;;;;;;5012636;28;20278;-71
2021/07/24 08:43:23;;;;;;;;;;;22.20;99.90;;;;;;5009468;28;19905;-71
2021/07/24 08:45:48;;;;;;;;;;;22.30;99.90;;;;;;5005796;28;19906;-70
2021/07/24 08:48:14;;;;;;;;;;;22.40;99.90;;;;;;5011940;28;19913;-71
2021/07/24 08:50:40;;;;;;;;;;;22.40;99.90;;;;;;5008124;28;20393;-72
2021/07/24 08:53:06;;;;;;;;;;;22.50;99.90;;;;;;5007094;28;20241;-72
2021/07/24 08:55:32;;;;;;;;;;;22.60;99.90;;;;;;5008225;28;20316;-72
2021/07/24 08:57:59;;;;;;;;;;;22.60;99.90;;;;;;5011819;28;19905;-71
2021/07/24 09:00:27;;;;;;;;;;;22.70;99.90;;;;;;5011868;28;19999;-71
2021/07/24 09:02:53;;;;;;;;;;;22.70;99.90;;;;;;5006825;28;19909;-72
2021/07/24 09:05:19;;;;;;;;;;;22.80;99.90;;;;;;5008477;28;19906;-71
2021/07/24 09:07:46;;;;;;;;;;;23.00;99.90;;;;;;5011472;28;19913;-70
2021/07/24 09:10:12;;;;;;;;;;;23.10;99.90;;;;;;5011921;28;20010;-71
2021/07/24 09:12:41;;;;;;;;;;;23.10;99.90;;;;;;5009026;28;19960;-71
2021/07/24 09:15:08;;;;;;;;;;;23.20;99.90;;;;;;5011651;28;20259;-70
2021/07/24 09:17:33;;;;;;;;;;;23.30;99.90;;;;;;5011055;28;19913;-72
2021/07/24 09:19:59;;;;;;;;;;;23.30;99.90;;;;;;5009398;28;19909;-73
2021/07/24 09:22:27;;;;;;;;;;;23.40;99.90;;;;;;5025301;28;19906;-73
2021/07/24 09:25:02;;;;;;;;;;;23.40;99.90;;;;;;5006284;28;19983;-73
2021/07/24 09:27:27;;;;;;;;;;;23.40;99.90;;;;;;5010382;28;20004;-73
2021/07/24 09:29:53;;;;;;;;;;;23.50;99.90;;;;;;5006596;28;20009;-73
2021/07/24 09:32:21;;;;;;;;;;;23.60;99.90;;;;;;5010773;28;19906;-71
2021/07/24 09:34:47;;;;;;;;;;;23.70;99.90;;;;;;5009368;28;19912;-73
2021/07/24 09:37:22;;;;;;;;;;;23.70;99.90;;;;;;5008408;28;20266;-73
2021/07/24 09:39:48;;;;;;;;;;;23.70;99.90;;;;;;5011311;28;19953;-74
2021/07/24 09:42:13;;;;;;;;;;;23.80;99.90;;;;;;5009981;28;20338;-74
2021/07/24 09:44:39;;;;;;;;;;;23.70;99.90;;;;;;5009214;28;19976;-73
2021/07/24 09:47:05;;;;;;;;;;;23.80;99.90;;;;;;5008102;28;19992;-74
2021/07/24 09:49:35;;;;;;;;;;;23.90;99.90;;;;;;5007594;28;19909;-74
2021/07/24 09:52:11;;;;;;;;;;;23.90;99.90;;;;;;5009408;28;19932;-73
2021/07/24 09:54:37;;;;;;;;;;;24.00;99.90;;;;;;4999639;28;20004;-73
2021/07/24 09:57:03;;;;;;;;;;;24.00;99.90;;;;;;5006685;28;19953;-73
2021/07/24 09:59:29;;;;;;;;;;;24.10;99.90;;;;;;5011200;28;19951;-73
2021/07/24 10:01:56;;;;;;;;;;;24.20;99.90;;;;;;5012812;28;19912;-75
2021/07/24 10:04:22;;;;;;;;;;;24.30;99.90;;;;;;5005749;28;20386;-73
2021/07/24 10:06:52;;;;;;;;;;;24.40;99.90;;;;;;5011547;28;19916;-73
2021/07/24 10:09:18;;;;;;;;;;;24.50;99.90;;;;;;5014154;28;19913;-73
2021/07/24 10:11:43;;;;;;;;;;;24.60;99.90;;;;;;5013459;28;19931;-74
2021/07/24 10:14:09;;;;;;;;;;;24.60;99.90;;;;;;5012128;28;19996;-75
2021/07/24 10:16:34;;;;;;;;;;;24.70;99.90;;;;;;5014803;28;19941;-72
2021/07/24 10:19:00;;;;;;;;;;;24.70;99.90;;;;;;5002735;28;19909;-73
2021/07/24 10:21:25;;;;;;;;;;;24.80;99.90;;;;;;5014047;28;19920;-74
2021/07/24 10:23:50;;;;;;;;;;;24.80;99.90;;;;;;4999828;28;19928;-73
2021/07/24 10:26:19;;;;;;;;;;;24.90;99.90;;;;;;5010256;28;19960;-73
2021/07/24 10:28:57;;;;;;;;;;;24.90;99.90;;;;;;5009398;28;19913;-73
2021/07/24 10:31:24;;;;;;;;;;;24.90;99.90;;;;;;5014308;28;19905;-73
2021/07/24 10:33:53;;;;;;;;;;;24.90;99.90;;;;;;5012420;28;20282;-74
2021/07/24 10:36:19;;;;;;;;;;;24.90;99.90;;;;;;5007941;28;19909;-73
2021/07/24 10:38:58;;;;;;;;;;;25.00;99.90;;;;;;5013941;28;20158;-73
2021/07/24 10:41:23;;;;;;;;;;;25.10;99.90;;;;;;5004868;28;20287;-73
2021/07/24 10:44:01;;;;;;;;;;;25.20;99.90;;;;;;5008420;28;19910;-73
2021/07/24 10:46:43;;;;;;;;;;;25.30;99.90;;;;;;5008256;28;19913;-72
2021/07/24 10:49:08;;;;;;;;;;;25.40;99.90;;;;;;5013526;28;19955;-74
2021/07/24 10:51:54;;;;;;;;;;;25.50;99.90;;;;;;5006288;28;20004;-73
2021/07/24 10:54:20;;;;;;;;;;;25.50;99.90;;;;;;5006265;28;20273;-71
2021/07/24 10:56:45;;;;;;;;;;;25.60;99.90;;;;;;5012679;28;19917;-71
2021/07/24 10:59:13;;;;;;;;;;;25.70;99.90;;;;;;5013945;28;20425;-71
2021/07/24 11:01:58;;;;;;;;;;;25.70;99.90;;;;;;5007040;28;19909;-70
2021/07/24 11:04:46;;;;;;;;;;;25.80;99.90;;;;;;5013700;28;19913;-70
2021/07/24 11:07:26;;;;;;;;;;;25.90;99.90;;;;;;5012812;28;20059;-73
2021/07/24 11:09:52;;;;;;;;;;;26.00;99.90;;;;;;5039252;23;19974;-68
2021/07/24 11:12:18;;;;;;;;;;;26.00;99.90;;;;;;5050583;28;19909;-68
2021/07/24 11:14:45;;;;;;;;;;;25.90;99.90;;;;;;5048769;28;19905;-68
2021/07/24 11:17:14;;;;;;;;;;;26.00;99.90;;;;;;5053313;28;20430;-68
2021/07/24 11:19:44;;;;;;;;;;;26.10;99.90;;;;;;5053244;28;20017;-68
2021/07/24 11:22:10;;;;;;;;;;;26.20;99.90;;;;;;5042176;28;19917;-68
2021/07/24 11:24:36;;;;;;;;;;;26.20;99.90;;;;;;5051382;28;19915;-68
2021/07/24 11:27:02;;;;;;;;;;;26.30;99.90;;;;;;5053075;28;19995;-68
2021/07/24 11:29:27;;;;;;;;;;;26.50;99.90;;;;;;5046961;28;19917;-68
2021/07/24 11:31:52;;;;;;;;;;;26.50;99.90;;;;;;5049219;28;19927;-68
2021/07/24 11:34:21;;;;;;;;;;;26.70;99.90;;;;;;5052763;28;19908;-68
2021/07/24 11:36:53;;;;;;;;;;;26.80;99.90;;;;;;5052926;28;19908;-68
2021/07/24 11:39:45;;;;;;;;;;;26.80;99.90;;;;;;5033011;28;19923;-68
2021/07/24 11:42:19;;;;;;;;;;;27.00;99.90;;;;;;5024441;28;19996;-68
2021/07/24 11:44:48;;;;;;;;;;;27.10;99.90;;;;;;5049455;28;19958;-68
2021/07/24 11:47:15;;;;;;;;;;;27.20;99.90;;;;;;5034894;28;19905;-68
2021/07/24 11:49:43;;;;;;;;;;;27.30;99.90;;;;;;5021288;28;19920;-69
2021/07/24 11:52:09;;;;;;;;;;;27.40;99.90;;;;;;5034778;28;19904;-68
2021/07/24 11:54:35;;;;;;;;;;;27.40;99.90;;;;;;5052326;28;19931;-68
2021/07/24 11:57:04;;;;;;;;;;;27.50;99.90;;;;;;5051053;28;19926;-68
2021/07/24 11:59:31;;;;;;;;;;;27.60;99.90;;;;;;5052191;28;19905;-69
2021/07/24 12:01:57;;;;;;;;;;;27.70;99.90;;;;;;5051944;28;19909;-68
2021/07/24 12:04:22;;;;;;;;;;;27.90;99.90;;;;;;5031637;28;19905;-69
2021/07/24 12:06:50;;;;;;;;;;;28.00;99.90;;;;;;5042570;28;19916;-69
2021/07/24 12:09:16;;;;;;;;;;;28.10;99.90;;;;;;5051913;28;19932;-69
2021/07/24 12:11:49;;;;;;;;;;;28.10;99.90;;;;;;5052157;28;20364;-68
2021/07/24 12:14:14;;;;;;;;;;;28.20;99.90;;;;;;5048769;28;19909;-69
2021/07/24 12:16:40;;;;;;;;;;;28.30;99.90;;;;;;5052363;28;20045;-68
2021/07/24 12:19:12;;;;;;;;;;;28.40;99.90;;;;;;5052227;28;20380;-68
2021/07/24 12:21:40;;;;;;;;;;;28.50;99.90;;;;;;5032044;28;20284;-69
2021/07/24 12:24:06;;;;;;;;;;;28.60;99.90;;;;;;5048947;28;19927;-69
2021/07/24 12:26:33;;;;;;;;;;;28.70;99.90;;;;;;5051670;28;20365;-69
2021/07/24 12:29:20;;;;;;;;;;;28.90;99.90;;;;;;5051760;28;20242;-69
2021/07/24 12:31:53;;;;;;;;;;;29.00;99.90;;;;;;5032918;28;19924;-69
2021/07/24 12:34:22;;;;;;;;;;;29.20;99.90;;;;;;5051819;28;19947;-69
2021/07/24 12:36:55;;;;;;;;;;;29.30;99.90;;;;;;5051867;28;19915;-68
2021/07/24 12:39:21;;;;;;;;;;;29.30;99.90;;;;;;5046759;28;19913;-69
2021/07/24 12:41:58;;;;;;;;;;;29.50;99.90;;;;;;5041625;28;19958;-69
2021/07/24 12:44:26;;;;;;;;;;;29.60;99.90;;;;;;5051524;28;19912;-68
2021/07/24 12:47:13;;;;;;;;;;;29.70;99.90;;;;;;5051960;28;20280;-69
2021/07/24 12:49:41;;;;;;;;;;;29.80;99.90;;;;;;5033329;28;19916;-69
2021/07/24 12:52:25;;;;;;;;;;;29.90;99.90;;;;;;5049552;28;19908;-69
2021/07/24 12:54:57;;;;;;;;;;;30.00;99.90;;;;;;5046401;28;19912;-68
2021/07/24 12:57:23;;;;;;;;;;;30.10;99.90;;;;;;5033856;28;20005;-68
2021/07/24 12:59:48;;;;;;;;;;;30.20;99.90;;;;;;5032571;28;19948;-68
2021/07/24 13:02:18;;;;;;;;;;;30.40;99.90;;;;;;5051604;28;19935;-69
2021/07/24 13:04:43;;;;;;;;;;;30.50;99.90;;;;;;5050611;28;20393;-69
2021/07/24 13:07:09;;;;;;;;;;;30.50;99.90;;;;;;5039940;28;20023;-68
2021/07/24 13:09:36;;;;;;;;;;;30.70;99.90;;;;;;5040753;28;19917;-69
2021/07/24 13:12:02;;;;;;;;;;;30.80;99.90;;;;;;5049650;28;20257;-68
2021/07/24 13:14:27;;;;;;;;;;;30.90;99.90;;;;;;5033057;28;20007;-69
2021/07/24 13:16:53;;;;;;;;;;;31.00;99.90;;;;;;5051535;28;20216;-69
2021/07/24 13:19:20;;;;;;;;;;;31.20;99.90;;;;;;5043586;28;19915;-69
2021/07/24 13:21:45;;;;;;;;;;;31.20;99.90;;;;;;5033141;28;19909;-69
2021/07/24 13:24:11;;;;;;;;;;;31.30;99.90;;;;;;5046766;28;19935;-68
2021/07/24 13:29:13;;;;;;;;;;;31.50;99.90;;;;;;5039073;28;19956;-68
2021/07/24 13:31:39;;;;;;;;;;;31.60;99.90;;;;;;5051460;28;20268;-69
2021/07/24 13:34:04;;;;;;;;;;;31.70;99.90;;;;;;5033164;28;20007;-68
2021/07/24 13:36:31;;;;;;;;;;;31.80;99.90;;;;;;5041070;28;19935;-69
2021/07/24 13:38:59;;;;;;;;;;;31.90;99.90;;;;;;5036970;28;20376;-69
2021/07/24 13:41:24;;;;;;;;;;;31.90;99.90;;;;;;5054991;28;19992;-69
2021/07/24 13:43:50;;;;;;;;;;;32.10;99.90;;;;;;5054462;28;20003;-69
2021/07/24 13:46:16;;;;;;;;;;;32.30;99.90;;;;;;5035902;28;19967;-69
2021/07/24 13:48:41;;;;;;;;;;;32.40;99.90;;;;;;5054127;28;19956;-69
2021/07/24 13:51:07;;;;;;;;;;;32.60;99.90;;;;;;5036770;28;19904;-69
2021/07/24 13:53:33;;;;;;;;;;;32.60;99.90;;;;;;5053133;28;19927;-68
2021/07/24 13:55:59;;;;;;;;;;;32.60;99.90;;;;;;5054837;28;19904;-68
2021/07/24 13:58:24;;;;;;;;;;;32.80;99.90;;;;;;5054689;28;19912;-68
2021/07/24 14:00:54;;;;;;;;;;;32.90;99.90;;;;;;5036706;28;19908;-69
2021/07/24 14:03:19;;;;;;;;;;;33.00;99.90;;;;;;5045994;28;19909;-68
2021/07/24 14:05:45;;;;;;;;;;;33.00;99.90;;;;;;5041449;28;19982;-68
2021/07/24 14:08:10;;;;;;;;;;;32.90;99.90;;;;;;5036725;28;19915;-69
2021/07/24 14:10:36;;;;;;;;;;;33.00;99.90;;;;;;5054029;28;19917;-69
2021/07/24 14:13:01;;;;;;;;;;;32.90;99.90;;;;;;5052275;28;19919;-69
2021/07/24 14:15:27;;;;;;;;;;;32.90;99.90;;;;;;5049439;28;19936;-69
2021/07/24 14:17:55;;;;;;;;;;;33.20;99.90;;;;;;5054482;28;20357;-69
2021/07/24 14:20:21;;;;;;;;;;;33.30;99.90;;;;;;5048050;28;19909;-69
2021/07/24 14:22:46;;;;;;;;;;;33.50;99.90;;;;;;5054420;28;19904;-69
2021/07/24 14:25:12;;;;;;;;;;;33.70;99.40;;;;;;5053722;28;19915;-69
2021/07/24 14:27:38;;;;;;;;;;;33.70;97.50;;;;;;5051764;28;19932;-69